Island Lookout — WDF6311 — position and weather

sailwx.info

Track history (hours):
 
Tides and Currents Weather Stations Pressure Air Temp Water Temp Dewpoint Dewpoint Depression Visibility Wind Speed Wind Dir Waves Ship Positions

Island Lookout

Owner: Stevens Towing Company Inc., Yonges Island, SC. More information available from US FCC via Universal Licensing System and Coast Guard Vessel Documentation Center.

Last reported at 2015-Jan-31 18:32 UTC. Time now 2015-Jan-31 21:14 UTC.
Position N 39°11' W 076°27'.

Length 22 m; draft 2.9 m.

Type: Towing. MMSI: 367472930.

Date/timePositionNaut miles runAvg speedWind from/ knotsBaromVisibWave heightAir tempDewpointWater temp
2015-Jan-31 18:32N 39°11' W 076°27'6 6.0
2015-Jan-31 17:33N 39°13' W 076°33'2 1.6
2015-Jan-31 16:33N 39°12' W 076°35'4 4.2
2015-Jan-31 15:33N 39°16' W 076°35'1 0.6
2015-Jan-31 14:33N 39°17' W 076°36'0 0.0
2015-Jan-31 13:33N 39°17' W 076°36'0 0.0
2015-Jan-31 12:33N 39°17' W 076°36'0 0.0
2015-Jan-31 11:33N 39°17' W 076°36'0 0.0
2015-Jan-31 10:33N 39°17' W 076°36'0 0.0
2015-Jan-31 09:33N 39°17' W 076°36'0 0.0
2015-Jan-31 08:33N 39°17' W 076°36'0 0.0
2015-Jan-31 07:33N 39°17' W 076°36'0 0.0
2015-Jan-31 06:33N 39°17' W 076°36'0 0.0
2015-Jan-31 05:33N 39°17' W 076°36'0 0.0
2015-Jan-31 04:33N 39°17' W 076°36'0 0.0
2015-Jan-31 03:33N 39°17' W 076°36'0 0.0
2015-Jan-31 02:33N 39°17' W 076°36'0 0.0
2015-Jan-31 01:34N 39°17' W 076°36'0 0.0
2015-Jan-31 00:33N 39°17' W 076°36'0 0.0
2015-Jan-30 23:33N 39°17' W 076°36'4 4.3
2015-Jan-30 22:33N 39°13' W 076°35'0 0.3
2015-Jan-30 21:33N 39°12' W 076°35'0 0.0
2015-Jan-30 20:33N 39°12' W 076°35'0 0.0
2015-Jan-30 19:34N 39°12' W 076°35'0 0.0
2015-Jan-30 18:33N 39°12' W 076°35'0 0.0
2015-Jan-30 17:34N 39°12' W 076°35'0 0.0
2015-Jan-30 16:33N 39°12' W 076°35'0 0.0
2015-Jan-30 15:33N 39°12' W 076°35'0 0.0
2015-Jan-30 14:33N 39°12' W 076°35'0 0.0
2015-Jan-30 13:33N 39°12' W 076°35'0 0.0
2015-Jan-30 12:33N 39°12' W 076°35'0 0.0
2015-Jan-30 11:33N 39°12' W 076°35'0 0.0
2015-Jan-30 10:33N 39°12' W 076°35'0 0.0
2015-Jan-30 09:33N 39°12' W 076°35'0 0.1
2015-Jan-30 08:33N 39°12' W 076°35'0 0.0
2015-Jan-30 07:33N 39°12' W 076°35'0 0.1
2015-Jan-30 06:33N 39°12' W 076°35'0 0.0
2015-Jan-30 05:34N 39°12' W 076°35'0 0.0
2015-Jan-30 04:33N 39°12' W 076°35'0 0.2
2015-Jan-30 03:33N 39°12' W 076°35'6 6.0
2015-Jan-30 02:34N 39°11' W 076°27'7 6.5
2015-Jan-30 01:30N 39°05' W 076°24'6 6.8
2015-Jan-30 00:32N 38°58' W 076°24'7 7.2
2015-Jan-29 23:30N 38°51' W 076°27'45 7.4
2015-Jan-29 17:28N 38°07' W 076°16'  
Track history (hours):
 
Tides and Currents Weather Stations Pressure Air Temp Water Temp Dewpoint Dewpoint Depression Visibility Wind Speed Wind Dir Waves Ship Positions

Island Lookout

Owner: Stevens Towing Company Inc., Yonges Island, SC. More information available from US FCC via Universal Licensing System and Coast Guard Vessel Documentation Center.

Last reported at 2015-Jan-31 18:32 UTC. Time now 2015-Jan-31 21:14 UTC.
Position N 39°11' W 076°27'.

Length 22 m; draft 2.9 m.

Type: Towing. MMSI: 367472930.

Date/timePositionNaut miles runAvg speedWind from/ knotsBaromVisibWave heightAir tempDewpointWater temp
2015-Jan-31 18:32N 39°11' W 076°27'6 6.0
2015-Jan-31 17:33N 39°13' W 076°33'2 1.6
2015-Jan-31 16:33N 39°12' W 076°35'4 4.2
2015-Jan-31 15:33N 39°16' W 076°35'1 0.6
2015-Jan-31 14:33N 39°17' W 076°36'0 0.0
2015-Jan-31 13:33N 39°17' W 076°36'0 0.0
2015-Jan-31 12:33N 39°17' W 076°36'0 0.0
2015-Jan-31 11:33N 39°17' W 076°36'0 0.0
2015-Jan-31 10:33N 39°17' W 076°36'0 0.0
2015-Jan-31 09:33N 39°17' W 076°36'0 0.0
2015-Jan-31 08:33N 39°17' W 076°36'0 0.0
2015-Jan-31 07:33N 39°17' W 076°36'0 0.0
2015-Jan-31 06:33N 39°17' W 076°36'0 0.0
2015-Jan-31 05:33N 39°17' W 076°36'0 0.0
2015-Jan-31 04:33N 39°17' W 076°36'0 0.0
2015-Jan-31 03:33N 39°17' W 076°36'0 0.0
2015-Jan-31 02:33N 39°17' W 076°36'0 0.0
2015-Jan-31 01:34N 39°17' W 076°36'0 0.0
2015-Jan-31 00:33N 39°17' W 076°36'0 0.0
2015-Jan-30 23:33N 39°17' W 076°36'4 4.3
2015-Jan-30 22:33N 39°13' W 076°35'0 0.3
2015-Jan-30 21:33N 39°12' W 076°35'0 0.0
2015-Jan-30 20:33N 39°12' W 076°35'0 0.0
2015-Jan-30 19:34N 39°12' W 076°35'0 0.0
2015-Jan-30 18:33N 39°12' W 076°35'0 0.0
2015-Jan-30 17:34N 39°12' W 076°35'0 0.0
2015-Jan-30 16:33N 39°12' W 076°35'0 0.0
2015-Jan-30 15:33N 39°12' W 076°35'0 0.0
2015-Jan-30 14:33N 39°12' W 076°35'0 0.0
2015-Jan-30 13:33N 39°12' W 076°35'0 0.0
2015-Jan-30 12:33N 39°12' W 076°35'0 0.0
2015-Jan-30 11:33N 39°12' W 076°35'0 0.0
2015-Jan-30 10:33N 39°12' W 076°35'0 0.0
2015-Jan-30 09:33N 39°12' W 076°35'0 0.1
2015-Jan-30 08:33N 39°12' W 076°35'0 0.0
2015-Jan-30 07:33N 39°12' W 076°35'0 0.1
2015-Jan-30 06:33N 39°12' W 076°35'0 0.0
2015-Jan-30 05:34N 39°12' W 076°35'0 0.0
2015-Jan-30 04:33N 39°12' W 076°35'0 0.2
2015-Jan-30 03:33N 39°12' W 076°35'6 6.0
2015-Jan-30 02:34N 39°11' W 076°27'7 6.5
2015-Jan-30 01:30N 39°05' W 076°24'6 6.8
2015-Jan-30 00:32N 38°58' W 076°24'7 7.2
2015-Jan-29 23:30N 38°51' W 076°27'45 7.4
2015-Jan-29 17:28N 38°07' W 076°16'  

Dump ship's entire track history